createdAt,value
2022-12-24T00:01:01.404Z,99758.25
2022-12-24T00:03:28.121Z,99768.75
2022-12-24T00:05:54.785Z,99779.31
2022-12-24T00:08:21.509Z,99766.31
2022-12-24T00:10:52.660Z,99761.97
2022-12-24T00:13:20.174Z,99756.66
2022-12-24T00:15:47.169Z,99768.03
2022-12-24T00:18:13.766Z,99766.22
2022-12-24T00:20:40.599Z,99760.91
2022-12-24T00:23:07.155Z,99752.78
2022-12-24T00:25:33.849Z,99745.66
2022-12-24T00:28:00.462Z,99738.53
2022-12-24T00:30:27.224Z,99742.75
2022-12-24T00:32:54.719Z,99760.47
2022-12-24T00:35:21.975Z,99762.16
2022-12-24T00:37:49.372Z,99763.84
2022-12-24T00:40:16.920Z,99763.84
2022-12-24T00:42:43.903Z,99778.03
2022-12-24T00:45:12.149Z,99799.19
2022-12-24T00:47:38.789Z,99822.22
2022-12-24T00:50:06.265Z,99831.91
2022-12-24T00:52:32.950Z,99819.56
2022-12-24T00:54:59.530Z,99809.84
2022-12-24T00:57:26.108Z,99807.44
2022-12-24T00:59:52.662Z,99792.41
2022-12-24T01:02:19.659Z,99781.00
2022-12-24T01:05:05.006Z,99783.66
2022-12-24T01:07:32.201Z,99776.63
2022-12-24T01:09:58.871Z,99771.22
2022-12-24T01:12:25.726Z,99761.41
2022-12-24T01:14:52.299Z,99741.81
2022-12-24T01:17:18.942Z,99730.22
2022-12-24T01:19:45.522Z,99734.66
2022-12-24T01:22:12.092Z,99741.81
2022-12-24T01:24:41.318Z,99734.66
2022-12-24T01:27:08.106Z,99728.28
2022-12-24T01:29:34.962Z,99710.50
2022-12-24T01:32:01.551Z,99710.41
2022-12-24T01:34:28.155Z,99715.81
2022-12-24T01:36:54.740Z,99719.31
2022-12-24T01:39:21.400Z,99712.19
2022-12-24T01:42:06.524Z,99721.06
2022-12-24T01:44:36.982Z,99693.56
2022-12-24T01:47:20.720Z,99704.31
2022-12-24T01:49:53.890Z,99714.13
2022-12-24T01:52:24.657Z,99720.84
2022-12-24T01:54:57.616Z,99730.56
2022-12-24T01:57:30.012Z,99716.28
2022-12-24T02:00:00.144Z,99731.47
2022-12-24T02:02:28.334Z,99712.97
2022-12-24T02:04:59.060Z,99720.00
2022-12-24T02:07:25.931Z,99720.97
2022-12-24T02:09:57.252Z,99708.50
2022-12-24T02:12:25.253Z,99728.38
2022-12-24T02:14:53.182Z,99716.91
2022-12-24T02:17:32.305Z,99732.78
2022-12-24T02:20:27.752Z,99737.03
2022-12-24T02:23:19.918Z,99746.47
2022-12-24T02:26:23.824Z,99759.03
2022-12-24T02:29:03.611Z,99782.50
2022-12-24T02:31:41.059Z,99755.41
2022-12-24T02:34:16.705Z,99733.47
2022-12-24T02:37:09.714Z,99736.50
2022-12-24T02:39:45.683Z,99741.31
2022-12-24T02:42:15.883Z,99732.47
2022-12-24T02:44:50.562Z,99731.50
2022-12-24T02:47:18.160Z,99720.72
2022-12-24T02:49:47.420Z,99719.88
2022-12-24T02:52:48.041Z,99724.34
2022-12-24T02:55:29.317Z,99720.97
2022-12-24T02:58:04.658Z,99718.81
2022-12-24T03:01:16.224Z,99711.91
2022-12-24T03:04:15.937Z,99716.34
2022-12-24T03:06:58.579Z,99721.69
2022-12-24T03:09:32.811Z,99740.22
2022-12-24T03:12:06.236Z,99738.94
2022-12-24T03:14:34.847Z,99754.34
2022-12-24T03:17:03.166Z,99744.03
2022-12-24T03:19:31.015Z,99755.03
2022-12-24T03:22:02.408Z,99763.25
2022-12-24T03:24:29.031Z,99748.31
2022-12-24T03:26:56.699Z,99741.53
2022-12-24T03:29:23.451Z,99725.66
2022-12-24T03:31:58.762Z,99732.06
2022-12-24T03:34:25.420Z,99726.84
2022-12-24T03:36:52.236Z,99724.06
2022-12-24T03:39:19.000Z,99721.63
2022-12-24T03:41:45.634Z,99737.50
2022-12-24T03:44:12.190Z,99727.69
2022-12-24T03:46:38.732Z,99738.22
2022-12-24T03:49:05.312Z,99744.31
2022-12-24T03:51:33.314Z,99749.28
2022-12-24T03:54:00.259Z,99762.06
2022-12-24T03:56:27.105Z,99756.38
2022-12-24T03:58:53.666Z,99757.88
2022-12-24T04:01:20.375Z,99752.31
2022-12-24T04:03:47.084Z,99757.78
2022-12-24T04:06:15.993Z,99755.09
2022-12-24T04:08:42.660Z,99754.03
2022-12-24T04:11:15.847Z,99763.72
2022-12-24T04:13:43.043Z,99746.97
2022-12-24T04:16:12.831Z,99752.09
2022-12-24T04:18:40.407Z,99763.28
2022-12-24T04:21:08.149Z,99755.34
2022-12-24T04:23:36.426Z,99761.81
2022-12-24T04:26:05.373Z,99760.69
2022-12-24T04:28:33.330Z,99752.50
2022-12-24T04:31:02.689Z,99759.78
2022-12-24T04:33:29.534Z,99759.81
2022-12-24T04:36:00.017Z,99757.16
2022-12-24T04:38:27.082Z,99757.28
2022-12-24T04:41:23.034Z,99748.06
2022-12-24T04:43:51.803Z,99747.00
2022-12-24T04:46:21.419Z,99759.03
2022-12-24T04:48:49.724Z,99755.22
2022-12-24T04:51:17.209Z,99750.75
2022-12-24T04:53:44.410Z,99740.94
2022-12-24T04:56:19.949Z,99751.34
2022-12-24T04:58:46.717Z,99753.44
2022-12-24T05:01:16.330Z,99767.03
2022-12-24T05:03:42.938Z,99767.88
2022-12-24T05:06:12.703Z,99777.22
2022-12-24T05:08:39.584Z,99767.03
2022-12-24T05:11:07.138Z,99770.28
2022-12-24T05:13:42.305Z,99778.16
2022-12-24T05:16:13.351Z,99778.84
2022-12-24T05:18:40.519Z,99781.00
2022-12-24T05:21:15.104Z,99779.53
2022-12-24T05:24:00.473Z,99779.53
2022-12-24T05:26:48.997Z,99779.91
2022-12-24T05:29:15.994Z,99783.03
2022-12-24T05:31:45.008Z,99792.88
2022-12-24T05:34:13.615Z,99784.34
2022-12-24T05:36:40.579Z,99801.44
2022-12-24T05:39:13.349Z,99805.69
2022-12-24T05:41:40.369Z,99803.03
2022-12-24T05:44:06.950Z,99800.22
2022-12-24T05:46:33.600Z,99801.94
2022-12-24T05:49:00.175Z,99809.09
2022-12-24T05:51:26.726Z,99796.38
2022-12-24T05:53:53.316Z,99795.28
2022-12-24T05:56:23.022Z,99795.75
2022-12-24T05:58:52.191Z,99799.09
2022-12-24T06:01:19.707Z,99801.91
2022-12-24T06:03:46.592Z,99803.31
2022-12-24T06:06:19.213Z,99798.31
2022-12-24T06:08:45.973Z,99802.06
2022-12-24T06:11:14.705Z,99797.28
2022-12-24T06:13:42.386Z,99806.25
2022-12-24T06:16:12.670Z,99812.97
2022-12-24T06:18:39.351Z,99817.31
2022-12-24T06:21:06.926Z,99816.25
2022-12-24T06:23:37.651Z,99817.09
2022-12-24T06:26:07.083Z,99814.56
2022-12-24T06:28:36.710Z,99828.00
2022-12-24T06:31:05.138Z,99827.38
2022-12-24T06:33:33.028Z,99830.16
2022-12-24T06:35:59.775Z,99838.66
2022-12-24T06:38:26.378Z,99842.56
2022-12-24T06:40:53.014Z,99832.69
2022-12-24T06:43:20.909Z,99840.13
2022-12-24T06:45:48.501Z,99851.97
2022-12-24T06:48:15.797Z,99843.88
2022-12-24T06:50:43.283Z,99858.78
2022-12-24T06:53:11.041Z,99866.91
2022-12-24T06:55:38.134Z,99874.81
2022-12-24T06:58:04.931Z,99861.25
2022-12-24T07:00:31.892Z,99870.22
2022-12-24T07:02:58.666Z,99869.47
2022-12-24T07:05:25.846Z,99872.03
2022-12-24T07:07:52.601Z,99872.66
2022-12-24T07:10:20.517Z,99873.72
2022-12-24T07:12:47.529Z,99878.84
2022-12-24T07:15:14.713Z,99874.59
2022-12-24T07:17:41.578Z,99868.50
2022-12-24T07:20:11.642Z,99866.59
2022-12-24T07:22:38.216Z,99873.63
2022-12-24T07:25:05.292Z,99874.34
2022-12-24T07:27:31.922Z,99873.06
2022-12-24T07:29:58.483Z,99873.06
2022-12-24T07:32:25.034Z,99878.25
2022-12-24T07:34:51.663Z,99880.72
2022-12-24T07:37:18.200Z,99888.72
2022-12-24T07:39:45.334Z,99892.09
2022-12-24T07:42:11.942Z,99901.59
2022-12-24T07:44:38.530Z,99896.66
2022-12-24T07:47:05.153Z,99894.50
2022-12-24T07:49:31.862Z,99905.66
2022-12-24T07:51:58.433Z,99910.66
2022-12-24T07:54:25.030Z,99918.44
2022-12-24T07:56:51.591Z,99916.50
2022-12-24T07:59:18.157Z,99921.59
2022-12-24T08:01:45.689Z,99922.34
2022-12-24T08:04:12.533Z,99917.50
2022-12-24T08:06:39.386Z,99928.94
2022-12-24T08:09:06.273Z,99932.31
2022-12-24T08:11:32.902Z,99937.44
2022-12-24T08:13:59.508Z,99946.19
2022-12-24T08:16:26.157Z,99948.50
2022-12-24T08:18:52.837Z,99966.13
2022-12-24T08:21:19.391Z,99967.59
2022-12-24T08:23:46.952Z,99977.09
2022-12-24T08:26:14.019Z,99980.22
2022-12-24T08:28:40.694Z,99981.50
2022-12-24T08:31:07.517Z,99995.84
2022-12-24T08:33:34.249Z,100010.34
2022-12-24T08:36:02.050Z,100006.88
2022-12-24T08:38:29.136Z,100009.19
2022-12-24T08:40:56.840Z,100004.94
2022-12-24T08:43:23.540Z,100012.00
2022-12-24T08:45:50.444Z,100016.50
2022-12-24T08:48:17.389Z,100015.88
2022-12-24T08:50:44.201Z,100018.22
2022-12-24T08:53:11.277Z,100029.38
2022-12-24T08:55:37.882Z,100030.59
2022-12-24T08:58:04.468Z,100033.03
2022-12-24T09:00:31.375Z,100036.06
2022-12-24T09:02:58.419Z,100024.75
2022-12-24T09:05:26.097Z,100028.72
2022-12-24T09:07:53.232Z,100028.34
2022-12-24T09:10:19.869Z,100033.47
2022-12-24T09:12:47.961Z,100034.19
2022-12-24T09:15:14.871Z,100034.06
2022-12-24T09:17:41.598Z,100047.34
2022-12-24T09:20:09.459Z,100046.09
2022-12-24T09:22:37.972Z,100047.66
2022-12-24T09:25:06.340Z,100054.47
2022-12-24T09:27:33.363Z,100052.28
2022-12-24T09:29:59.930Z,100058.94
2022-12-24T09:32:26.523Z,100063.94
2022-12-24T09:34:53.937Z,100062.56
2022-12-24T09:37:20.535Z,100063.91
2022-12-24T09:39:47.279Z,100055.34
2022-12-24T09:42:16.694Z,100065.28
2022-12-24T09:45:08.426Z,100070.50
2022-12-24T09:47:39.845Z,100062.63
2022-12-24T09:50:36.911Z,100059.06
2022-12-24T09:53:12.932Z,100061.81
2022-12-24T09:56:00.544Z,100052.81
2022-12-24T09:58:37.548Z,100060.25
2022-12-24T10:01:04.476Z,100065.94
2022-12-24T10:03:32.049Z,100069.09
2022-12-24T10:06:06.536Z,100073.91
2022-12-24T10:08:43.544Z,100084.25
2022-12-24T10:11:21.928Z,100082.00
2022-12-24T10:14:01.215Z,100085.16
2022-12-24T10:16:39.560Z,100081.06
2022-12-24T10:19:31.735Z,100083.94
2022-12-24T10:22:29.911Z,100077.75
2022-12-24T10:25:22.317Z,100084.88
2022-12-24T10:27:48.903Z,100085.59
2022-12-24T10:30:22.104Z,100074.88
2022-12-24T10:32:51.055Z,100086.75
2022-12-24T10:35:25.710Z,100087.22
2022-12-24T10:37:52.859Z,100081.44
2022-12-24T10:40:28.563Z,100094.31
2022-12-24T10:42:55.284Z,100093.03
2022-12-24T10:45:26.078Z,100083.56
2022-12-24T10:48:01.927Z,100098.03
2022-12-24T10:50:35.406Z,100094.47
2022-12-24T10:53:32.348Z,100088.00
2022-12-24T10:56:08.103Z,100087.97
2022-12-24T10:58:35.653Z,100087.28
2022-12-24T11:01:02.691Z,100092.34
2022-12-24T11:03:36.951Z,100088.53
2022-12-24T11:06:18.455Z,100104.81
2022-12-24T11:08:45.776Z,100105.53
2022-12-24T11:11:20.674Z,100109.47
2022-12-24T11:13:50.025Z,100100.63
2022-12-24T11:16:19.396Z,100102.03
2022-12-24T11:18:51.626Z,100118.06
2022-12-24T11:21:21.085Z,100128.88
2022-12-24T11:23:56.675Z,100141.44
2022-12-24T11:26:25.835Z,100133.66
2022-12-24T11:29:25.665Z,100134.91
2022-12-24T11:31:53.169Z,100134.50
2022-12-24T11:34:22.449Z,100141.19
2022-12-24T11:36:51.200Z,100131.50
2022-12-24T11:39:25.815Z,100135.16
2022-12-24T11:41:53.552Z,100137.78
2022-12-24T11:44:31.522Z,100135.72
2022-12-24T11:46:58.199Z,100125.25
2022-12-24T11:49:26.332Z,100139.06
2022-12-24T11:52:11.221Z,100132.59
2022-12-24T11:54:56.621Z,100137.25
2022-12-24T11:57:31.493Z,100147.28
2022-12-24T11:59:58.270Z,100135.03
2022-12-24T12:02:39.836Z,100135.09
2022-12-24T12:05:18.682Z,100133.19
2022-12-24T12:07:50.396Z,100141.81
2022-12-24T12:10:28.645Z,100147.59
2022-12-24T12:13:03.544Z,100154.31
2022-12-24T12:15:35.908Z,100167.44
2022-12-24T12:18:16.204Z,100154.56
2022-12-24T12:20:51.840Z,100152.44
2022-12-24T12:23:30.111Z,100158.59
2022-12-24T12:26:24.267Z,100163.59
2022-12-24T12:29:18.827Z,100158.66
2022-12-24T12:31:50.810Z,100158.09
2022-12-24T12:34:26.036Z,100155.00
2022-12-24T12:36:57.557Z,100159.88
2022-12-24T12:39:24.613Z,100156.16
2022-12-24T12:42:10.055Z,100163.38
2022-12-24T12:44:41.347Z,100155.63
2022-12-24T12:47:38.132Z,100151.19
2022-12-24T12:50:33.416Z,100155.91
2022-12-24T12:53:02.858Z,100161.16
2022-12-24T12:55:29.365Z,100167.38
2022-12-24T12:58:05.643Z,100171.94
2022-12-24T13:00:38.744Z,100168.25
2022-12-24T13:03:30.210Z,100180.72
2022-12-24T13:06:44.725Z,100164.06
2022-12-24T13:09:17.237Z,100166.03
2022-12-24T13:11:58.788Z,100176.31
2022-12-24T13:14:43.844Z,100184.38
2022-12-24T13:17:34.008Z,100193.56
2022-12-24T13:20:15.922Z,100197.72
2022-12-24T13:22:57.744Z,100192.94
2022-12-24T13:25:33.144Z,100189.75
2022-12-24T13:28:20.753Z,100202.38
2022-12-24T13:30:52.677Z,100199.94
2022-12-24T13:33:37.385Z,100201.38
2022-12-24T13:36:14.119Z,100198.13
2022-12-24T13:38:54.640Z,100202.19
2022-12-24T13:41:38.916Z,100206.59
2022-12-24T13:44:23.577Z,100208.97
2022-12-24T13:47:18.624Z,100207.59
2022-12-24T13:49:54.321Z,100213.81
2022-12-24T13:52:42.573Z,100217.75
2022-12-24T13:55:15.676Z,100227.63
2022-12-24T13:58:01.045Z,100228.34
2022-12-24T14:00:32.532Z,100229.69
2022-12-24T14:03:06.022Z,100229.84
2022-12-24T14:05:40.354Z,100231.03
2022-12-24T14:08:11.767Z,100240.69
2022-12-24T14:10:46.020Z,100247.31
2022-12-24T14:13:40.623Z,100251.81
2022-12-24T14:16:14.909Z,100259.91
2022-12-24T14:18:50.098Z,100258.81
2022-12-24T14:21:26.830Z,100258.31
2022-12-24T14:23:59.933Z,100258.47
2022-12-24T14:26:45.364Z,100266.34
2022-12-24T14:29:26.628Z,100275.28
2022-12-24T14:31:55.442Z,100270.97
2022-12-24T14:34:22.830Z,100289.91
2022-12-24T14:36:51.905Z,100296.19
2022-12-24T14:39:21.607Z,100306.69
2022-12-24T14:42:12.989Z,100297.56
2022-12-24T14:44:54.536Z,100316.28
2022-12-24T14:47:30.958Z,100317.09
2022-12-24T14:50:03.990Z,100315.59
2022-12-24T14:55:32.257Z,100313.72
2022-12-24T14:58:24.022Z,100321.69
2022-12-24T15:00:52.060Z,100330.38
2022-12-24T15:03:21.650Z,100329.69
2022-12-24T15:06:09.245Z,100340.44
2022-12-24T15:08:48.642Z,100335.06
2022-12-24T15:11:20.009Z,100336.94
2022-12-24T15:13:53.914Z,100335.09
2022-12-24T15:16:41.038Z,100341.31
2022-12-24T15:19:21.605Z,100342.28
2022-12-24T15:21:48.318Z,100353.88
2022-12-24T15:24:44.491Z,100370.75
2022-12-24T15:27:32.136Z,100364.94
2022-12-24T15:29:59.163Z,100374.38
2022-12-24T15:32:25.835Z,100372.69
2022-12-24T15:34:54.927Z,100378.34
2022-12-24T15:37:37.767Z,100369.81
2022-12-24T15:40:07.899Z,100379.25
2022-12-24T15:42:36.485Z,100383.94
2022-12-24T15:45:05.574Z,100389.31
2022-12-24T15:47:38.908Z,100382.63
2022-12-24T15:50:18.680Z,100388.97
2022-12-24T15:52:46.646Z,100375.50
2022-12-24T15:55:37.771Z,100378.16
2022-12-24T15:58:25.962Z,100393.72
2022-12-24T16:01:09.197Z,100398.81
2022-12-24T16:03:39.181Z,100394.38
2022-12-24T16:06:11.653Z,100402.56
2022-12-24T16:08:40.162Z,100406.91
2022-12-24T16:11:12.895Z,100398.19
2022-12-24T16:13:58.179Z,100404.81
2022-12-24T16:16:39.911Z,100394.84
2022-12-24T16:19:15.335Z,100402.69
2022-12-24T16:21:43.720Z,100408.41
2022-12-24T16:24:13.140Z,100407.06
2022-12-24T16:26:40.345Z,100399.28
2022-12-24T16:29:07.367Z,100411.13
2022-12-24T16:31:39.151Z,100404.16
2022-12-24T16:34:06.129Z,100404.06
2022-12-24T16:36:32.993Z,100396.81
2022-12-24T16:39:18.137Z,100391.97
2022-12-24T16:42:03.455Z,100397.03
2022-12-24T16:44:30.105Z,100398.97
2022-12-24T16:47:00.359Z,100401.75
2022-12-24T16:49:27.464Z,100414.00
2022-12-24T16:51:54.045Z,100422.44
2022-12-24T16:54:20.737Z,100430.28
2022-12-24T16:56:47.319Z,100424.66
2022-12-24T16:59:19.044Z,100430.53
2022-12-24T17:01:46.711Z,100442.63
2022-12-24T17:04:14.482Z,100450.41
2022-12-24T17:06:41.241Z,100450.69
2022-12-24T17:09:10.088Z,100451.47
2022-12-24T17:11:37.131Z,100448.69
2022-12-24T17:14:08.002Z,100450.25
2022-12-24T17:16:37.519Z,100446.72
2022-12-24T17:19:05.066Z,100449.00
2022-12-24T17:21:31.866Z,100449.50
2022-12-24T17:23:58.702Z,100449.25
2022-12-24T17:26:25.283Z,100449.94
2022-12-24T17:28:56.827Z,100463.91
2022-12-24T17:31:24.650Z,100465.97
2022-12-24T17:33:53.019Z,100460.34
2022-12-24T17:36:20.710Z,100474.53
2022-12-24T17:38:47.590Z,100475.56
2022-12-24T17:41:17.487Z,100483.88
2022-12-24T17:43:44.443Z,100486.09
2022-12-24T17:46:17.027Z,100491.38
2022-12-24T17:48:44.455Z,100498.47
2022-12-24T17:51:13.431Z,100494.63
2022-12-24T17:53:41.718Z,100503.94
2022-12-24T17:56:12.336Z,100495.38
2022-12-24T17:58:43.172Z,100498.28
2022-12-24T18:01:15.768Z,100495.50
2022-12-24T18:03:42.757Z,100490.91
2022-12-24T18:06:11.058Z,100503.63
2022-12-24T18:08:39.224Z,100508.53
2022-12-24T18:11:18.044Z,100526.72
2022-12-24T18:13:45.724Z,100519.72
2022-12-24T18:16:35.945Z,100518.41
2022-12-24T18:19:04.601Z,100527.78
2022-12-24T18:21:32.694Z,100536.09
2022-12-24T18:23:59.871Z,100526.03
2022-12-24T18:26:28.968Z,100525.47
2022-12-24T18:28:57.037Z,100532.72
2022-12-24T18:31:24.528Z,100538.59
2022-12-24T18:33:53.006Z,100540.38
2022-12-24T18:36:20.467Z,100528.00
2022-12-24T18:38:47.548Z,100545.16
2022-12-24T18:41:18.517Z,100548.53
2022-12-24T18:43:45.400Z,100556.28
2022-12-24T18:46:17.618Z,100557.44
2022-12-24T18:48:46.885Z,100558.13
2022-12-24T18:51:14.187Z,100567.06
2022-12-24T18:53:40.899Z,100565.09
2022-12-24T18:56:13.731Z,100559.75
2022-12-24T18:58:42.399Z,100554.88
2022-12-24T19:01:29.627Z,100549.81
2022-12-24T19:03:56.628Z,100554.97
2022-12-24T19:06:24.225Z,100547.34
2022-12-24T19:09:00.372Z,100566.50
2022-12-24T19:11:30.461Z,100563.72
2022-12-24T19:13:58.281Z,100563.53
2022-12-24T19:16:25.466Z,100573.31
2022-12-24T19:18:52.081Z,100576.66
2022-12-24T19:21:19.232Z,100570.81
2022-12-24T19:23:46.928Z,100587.00
2022-12-24T19:26:15.206Z,100586.78
2022-12-24T19:28:42.733Z,100594.38
2022-12-24T19:31:13.014Z,100583.13
2022-12-24T19:33:45.185Z,100582.69
2022-12-24T19:36:15.196Z,100586.75
2022-12-24T19:38:41.951Z,100594.56
2022-12-24T19:41:16.409Z,100593.34
2022-12-24T19:43:45.081Z,100602.56
2022-12-24T19:46:15.639Z,100603.25
2022-12-24T19:48:43.073Z,100622.66
2022-12-24T19:51:12.244Z,100613.13
2022-12-24T19:53:39.769Z,100615.00
2022-12-24T19:56:07.290Z,100626.97
2022-12-24T19:58:34.316Z,100617.69
2022-12-24T20:01:14.507Z,100623.63
2022-12-24T20:03:41.711Z,100630.06
2022-12-24T20:06:11.307Z,100630.34
2022-12-24T20:08:38.527Z,100631.59
2022-12-24T20:11:09.629Z,100637.78
2022-12-24T20:13:37.746Z,100630.81
2022-12-24T20:16:09.896Z,100645.16
2022-12-24T20:18:36.730Z,100637.19
2022-12-24T20:21:06.791Z,100628.25
2022-12-24T20:23:33.488Z,100642.91
2022-12-24T20:26:02.241Z,100638.72
2022-12-24T20:28:31.830Z,100641.81
2022-12-24T20:30:58.512Z,100649.25
2022-12-24T20:33:26.038Z,100642.56
2022-12-24T20:35:52.869Z,100645.81
2022-12-24T20:38:19.481Z,100635.56
2022-12-24T20:40:46.693Z,100642.00
2022-12-24T20:43:13.796Z,100655.34
2022-12-24T20:45:41.045Z,100654.66
2022-12-24T20:48:08.058Z,100645.78
2022-12-24T20:50:34.661Z,100656.81
2022-12-24T20:53:01.297Z,100662.53
2022-12-24T20:55:27.926Z,100665.09
2022-12-24T20:57:54.503Z,100675.50
2022-12-24T21:00:21.536Z,100678.47
2022-12-24T21:02:48.305Z,100667.75
2022-12-24T21:05:15.378Z,100676.91
2022-12-24T21:07:43.572Z,100674.50
2022-12-24T21:10:12.356Z,100670.25
2022-12-24T21:12:49.187Z,100692.72
2022-12-24T21:15:21.981Z,100693.03
2022-12-24T21:17:49.008Z,100693.78
2022-12-24T21:20:15.848Z,100685.91
2022-12-24T21:22:42.722Z,100696.53
2022-12-24T21:25:10.598Z,100706.53
2022-12-24T21:27:37.305Z,100699.03
2022-12-24T21:30:09.062Z,100707.06
2022-12-24T21:32:36.406Z,100693.84
2022-12-24T21:35:04.441Z,100708.06
2022-12-24T21:37:31.126Z,100708.38
2022-12-24T21:39:57.679Z,100716.59
2022-12-24T21:42:24.567Z,100716.06
2022-12-24T21:44:51.148Z,100721.69
2022-12-24T21:47:17.833Z,100720.50
2022-12-24T21:50:02.842Z,100717.97
2022-12-24T21:52:29.335Z,100712.97
2022-12-24T21:54:56.226Z,100709.81
2022-12-24T21:57:41.661Z,100711.66
2022-12-24T22:00:28.997Z,100711.19
2022-12-24T22:02:57.642Z,100709.47
2022-12-24T22:05:26.180Z,100708.47
2022-12-24T22:08:12.521Z,100714.06
2022-12-24T22:10:57.900Z,100725.50
2022-12-24T22:13:25.465Z,100732.69
2022-12-24T22:15:54.065Z,100730.03
2022-12-24T22:18:23.695Z,100727.50
2022-12-24T22:20:51.145Z,100733.03
2022-12-24T22:23:18.981Z,100726.25
2022-12-24T22:25:46.135Z,100731.66
2022-12-24T22:28:12.808Z,100731.81
2022-12-24T22:30:41.265Z,100724.06
2022-12-24T22:33:08.911Z,100722.50
2022-12-24T22:35:39.775Z,100731.50
2022-12-24T22:38:09.854Z,100723.66
2022-12-24T22:40:39.526Z,100731.50
2022-12-24T22:43:06.124Z,100732.38
2022-12-24T22:45:32.793Z,100720.56
2022-12-24T22:47:59.372Z,100720.50
2022-12-24T22:50:26.101Z,100731.00
2022-12-24T22:52:53.944Z,100736.31
2022-12-24T22:55:20.850Z,100735.53
2022-12-24T22:57:47.683Z,100733.09
2022-12-24T23:00:41.848Z,100721.50
2022-12-24T23:03:09.574Z,100732.59
2022-12-24T23:05:37.081Z,100749.41
2022-12-24T23:08:04.747Z,100747.31
2022-12-24T23:10:31.648Z,100756.78
2022-12-24T23:13:17.393Z,100750.50
2022-12-24T23:15:43.984Z,100757.63
2022-12-24T23:18:11.412Z,100733.34
2022-12-24T23:20:40.860Z,100715.06
2022-12-24T23:23:07.439Z,100724.38
2022-12-24T23:25:34.186Z,100723.34
2022-12-24T23:28:00.775Z,100727.38
2022-12-24T23:30:27.359Z,100740.56
2022-12-24T23:32:54.936Z,100744.94
2022-12-24T23:35:21.637Z,100746.69
2022-12-24T23:37:48.211Z,100744.34
2022-12-24T23:40:14.955Z,100746.19
2022-12-24T23:42:41.671Z,100746.19
2022-12-24T23:45:08.882Z,100752.38
2022-12-24T23:47:35.792Z,100752.50
2022-12-24T23:50:02.403Z,100763.13
2022-12-24T23:52:28.982Z,100762.19
2022-12-24T23:54:55.535Z,100757.75
2022-12-24T23:57:22.103Z,100758.50
2022-12-24T23:59:48.748Z,100767.28
